createdAt,value
2018-07-04T00:00:48.249Z,23.90
2018-07-04T00:03:35.117Z,23.70
2018-07-04T00:06:21.921Z,23.70
2018-07-04T00:09:08.668Z,23.70
2018-07-04T00:11:55.436Z,23.70
2018-07-04T00:14:42.212Z,23.70
2018-07-04T00:17:29.001Z,23.60
2018-07-04T00:20:16.029Z,23.50
2018-07-04T00:23:02.746Z,23.50
2018-07-04T00:25:49.597Z,23.40
2018-07-04T00:28:36.368Z,23.30
2018-07-04T00:31:23.213Z,23.20
2018-07-04T00:34:09.965Z,23.20
2018-07-04T00:36:56.861Z,23.30
2018-07-04T00:39:43.616Z,23.30
2018-07-04T00:42:30.396Z,23.30
2018-07-04T00:45:17.118Z,23.30
2018-07-04T00:48:04.044Z,23.20
2018-07-04T00:50:50.769Z,23.10
2018-07-04T00:53:37.633Z,23.10
2018-07-04T00:56:24.357Z,23.00
2018-07-04T00:59:11.149Z,22.70
2018-07-04T01:01:58.032Z,22.50
2018-07-04T01:04:44.792Z,22.60
2018-07-04T01:07:31.472Z,22.60
2018-07-04T01:10:18.269Z,22.50
2018-07-04T01:13:04.999Z,22.30
2018-07-04T01:15:51.855Z,22.30
2018-07-04T01:18:38.815Z,22.40
2018-07-04T01:21:25.524Z,22.50
2018-07-04T01:24:12.400Z,22.50
2018-07-04T01:26:59.207Z,22.60
2018-07-04T01:29:46.023Z,22.60
2018-07-04T01:32:32.927Z,22.50
2018-07-04T01:35:19.764Z,22.30
2018-07-04T01:38:06.724Z,22.20
2018-07-04T01:40:53.422Z,22.30
2018-07-04T01:43:40.344Z,22.40
2018-07-04T01:46:27.082Z,22.50
2018-07-04T01:49:13.781Z,22.50
2018-07-04T01:52:00.672Z,22.30
2018-07-04T01:54:47.449Z,22.30
2018-07-04T01:57:34.191Z,22.30
2018-07-04T02:00:20.912Z,22.30
2018-07-04T02:03:07.748Z,22.30
2018-07-04T02:05:54.493Z,22.40
2018-07-04T02:08:41.220Z,22.40
2018-07-04T02:11:28.044Z,22.40
2018-07-04T02:14:14.765Z,22.30
2018-07-04T02:17:01.586Z,22.30
2018-07-04T02:19:48.357Z,22.10
2018-07-04T02:22:35.072Z,22.10
2018-07-04T02:25:21.698Z,22.00
2018-07-04T02:28:09.829Z,22.00
2018-07-04T02:30:56.565Z,22.00
2018-07-04T02:33:43.469Z,21.80
2018-07-04T02:36:30.297Z,21.40
2018-07-04T02:39:17.139Z,21.50
2018-07-04T02:42:03.980Z,21.60
2018-07-04T02:44:50.740Z,21.70
2018-07-04T02:47:37.500Z,21.80
2018-07-04T02:50:24.366Z,21.70
2018-07-04T02:53:11.289Z,21.60
2018-07-04T02:55:58.144Z,21.70
2018-07-04T02:58:44.992Z,21.60
2018-07-04T03:01:31.807Z,21.60
2018-07-04T03:04:18.543Z,21.80
2018-07-04T03:07:05.352Z,21.90
2018-07-04T03:09:51.980Z,21.90
2018-07-04T03:12:38.852Z,22.00
2018-07-04T03:15:25.785Z,21.90
2018-07-04T03:18:12.642Z,21.60
2018-07-04T03:20:59.330Z,21.60
2018-07-04T03:23:46.235Z,21.60
2018-07-04T03:26:33.143Z,21.70
2018-07-04T03:29:19.904Z,21.80
2018-07-04T03:32:06.744Z,21.90
2018-07-04T03:34:53.538Z,22.00
2018-07-04T03:37:40.234Z,22.10
2018-07-04T03:40:26.892Z,22.10
2018-07-04T03:43:13.779Z,22.20
2018-07-04T03:46:00.554Z,22.20
2018-07-04T03:48:47.404Z,22.10
2018-07-04T03:51:34.042Z,22.10
2018-07-04T03:54:20.726Z,22.10
2018-07-04T03:57:07.623Z,22.10
2018-07-04T03:59:54.152Z,22.10
2018-07-04T04:02:40.857Z,22.10
2018-07-04T04:05:27.786Z,22.10
2018-07-04T04:08:14.527Z,22.00
2018-07-04T04:11:01.040Z,22.00
2018-07-04T04:13:47.856Z,21.90
2018-07-04T04:16:34.506Z,22.00
2018-07-04T04:19:25.381Z,22.00
2018-07-04T04:22:12.584Z,22.10
2018-07-04T04:24:59.419Z,22.10
2018-07-04T04:27:46.156Z,22.00
2018-07-04T04:30:32.936Z,22.10
2018-07-04T04:33:19.661Z,22.00
2018-07-04T04:36:06.412Z,22.00
2018-07-04T04:38:53.184Z,22.10
2018-07-04T04:41:39.976Z,22.00
2018-07-04T04:44:26.910Z,21.80
2018-07-04T04:47:13.615Z,21.90
2018-07-04T04:50:00.305Z,21.70
2018-07-04T04:52:47.116Z,21.60
2018-07-04T04:55:33.998Z,21.70
2018-07-04T04:58:20.731Z,21.60
2018-07-04T05:01:07.483Z,21.70
2018-07-04T05:03:54.333Z,21.60
2018-07-04T05:06:41.227Z,20.80
2018-07-04T05:09:28.096Z,20.30
2018-07-04T05:12:14.881Z,20.20
2018-07-04T05:15:01.689Z,20.30
2018-07-04T05:17:48.352Z,20.40
2018-07-04T05:20:35.220Z,20.60
2018-07-04T05:23:21.900Z,20.70
2018-07-04T05:26:08.761Z,20.90
2018-07-04T05:28:55.500Z,21.00
2018-07-04T05:31:42.399Z,21.20
2018-07-04T05:34:29.261Z,21.10
2018-07-04T05:37:16.100Z,21.10
2018-07-04T05:40:02.899Z,21.30
2018-07-04T05:42:49.710Z,21.40
2018-07-04T05:45:37.073Z,21.50
2018-07-04T05:48:23.846Z,21.30
2018-07-04T05:51:10.713Z,21.30
2018-07-04T05:53:57.613Z,21.30
2018-07-04T05:56:44.460Z,21.40
2018-07-04T05:59:31.169Z,21.50
2018-07-04T06:02:17.820Z,21.60
2018-07-04T06:05:04.495Z,21.70
2018-07-04T06:07:51.259Z,21.90
2018-07-04T06:10:38.012Z,22.00
2018-07-04T06:13:24.869Z,22.10
2018-07-04T06:16:11.793Z,22.20
2018-07-04T06:18:58.830Z,22.20
2018-07-04T06:21:45.781Z,22.10
2018-07-04T06:24:32.507Z,22.20
2018-07-04T06:27:19.402Z,22.30
2018-07-04T06:30:06.053Z,22.40
2018-07-04T06:32:52.941Z,22.40
2018-07-04T06:35:39.679Z,22.50
2018-07-04T06:38:14.114Z,22.50
2018-07-04T06:40:42.525Z,22.50
2018-07-04T06:43:10.915Z,22.50
2018-07-04T06:45:39.335Z,22.60
2018-07-04T06:48:07.747Z,22.50
2018-07-04T06:50:36.164Z,22.60
2018-07-04T06:53:04.588Z,22.60
2018-07-04T06:55:33.013Z,22.60
2018-07-04T06:58:01.426Z,22.60
2018-07-04T07:00:29.828Z,22.60
2018-07-04T07:03:10.495Z,22.70
2018-07-04T07:05:57.273Z,22.80
2018-07-04T07:08:43.980Z,22.90
2018-07-04T07:11:30.754Z,22.90
2018-07-04T07:14:17.619Z,22.90
2018-07-04T07:17:04.300Z,22.90
2018-07-04T07:19:51.029Z,23.10
2018-07-04T07:22:37.784Z,23.10
2018-07-04T07:25:24.532Z,23.30
2018-07-04T07:28:12.001Z,23.50
2018-07-04T07:30:58.771Z,23.60
2018-07-04T07:33:45.576Z,23.70
2018-07-04T07:36:32.330Z,23.80
2018-07-04T07:39:19.113Z,23.80
2018-07-04T07:42:06.243Z,23.90
2018-07-04T07:44:52.862Z,24.00
2018-07-04T07:47:39.757Z,24.00
2018-07-04T07:50:26.671Z,24.10
2018-07-04T07:53:13.451Z,24.10
2018-07-04T07:56:00.118Z,24.20
2018-07-04T07:58:46.908Z,24.30
2018-07-04T08:01:33.688Z,24.40
2018-07-04T08:04:20.477Z,24.40
2018-07-04T08:07:07.250Z,24.40
2018-07-04T08:09:54.019Z,24.50
2018-07-04T08:12:40.821Z,24.50
2018-07-04T08:15:27.552Z,24.80
2018-07-04T08:18:14.356Z,24.90
2018-07-04T08:21:01.136Z,25.00
2018-07-04T08:23:47.862Z,25.30
2018-07-04T08:26:34.677Z,25.40
2018-07-04T08:29:21.420Z,25.70
2018-07-04T08:32:08.196Z,25.80
2018-07-04T08:34:54.963Z,25.80
2018-07-04T08:37:41.792Z,26.00
2018-07-04T08:40:28.542Z,26.20
2018-07-04T08:43:15.429Z,26.50
2018-07-04T08:46:02.137Z,26.70
2018-07-04T08:48:49.048Z,26.90
2018-07-04T08:51:35.932Z,27.50
2018-07-04T08:54:22.776Z,27.70
2018-07-04T08:57:09.546Z,27.90
2018-07-04T08:59:56.340Z,28.20
2018-07-04T09:02:43.052Z,29.10
2018-07-04T09:05:29.812Z,29.20
2018-07-04T09:08:16.631Z,29.60
2018-07-04T09:11:03.351Z,30.30
2018-07-04T09:13:50.214Z,30.30
2018-07-04T09:16:37.004Z,30.60
2018-07-04T09:19:23.968Z,31.10
2018-07-04T10:19:07.217Z,39.90
2018-07-04T10:21:59.797Z,41.50
2018-07-04T10:24:52.602Z,42.10
2018-07-04T10:27:39.638Z,42.90
2018-07-04T10:33:07.801Z,41.80
2018-07-04T10:35:55.312Z,41.60
2018-07-04T10:38:42.468Z,40.90
2018-07-04T10:41:29.645Z,41.50
2018-07-04T10:44:16.725Z,41.50
2018-07-04T10:47:03.765Z,40.70
2018-07-04T10:49:50.764Z,40.40
2018-07-04T10:52:37.528Z,40.80
2018-07-04T10:55:25.533Z,40.40
2018-07-04T10:58:12.609Z,40.50
2018-07-04T11:03:40.429Z,38.90
2018-07-04T11:06:27.605Z,39.10
2018-07-04T11:09:15.281Z,39.40
2018-07-04T11:12:02.505Z,39.30
2018-07-04T11:14:49.570Z,39.20
2018-07-04T11:17:36.592Z,39.10
2018-07-04T11:20:24.343Z,39.60
2018-07-04T11:25:52.379Z,39.00
2018-07-04T11:28:39.516Z,38.60
2018-07-04T11:31:26.547Z,38.90
2018-07-04T11:34:14.334Z,39.00
2018-07-04T11:37:01.450Z,40.50
2018-07-04T11:39:49.181Z,41.90
2018-07-04T11:42:36.278Z,41.90
2018-07-04T11:45:23.372Z,42.40
2018-07-04T11:47:57.906Z,42.10
2018-07-04T11:50:26.308Z,41.70
2018-07-04T11:55:23.231Z,42.90
2018-07-04T11:57:51.665Z,43.10
2018-07-04T12:00:20.113Z,43.20
2018-07-04T12:02:48.592Z,42.80
2018-07-04T12:05:29.509Z,41.50
2018-07-04T12:08:04.329Z,40.30
2018-07-04T12:10:32.747Z,38.90
2018-07-04T12:15:30.380Z,36.40
2018-07-04T12:17:58.837Z,36.30
2018-07-04T12:20:27.324Z,36.00
2018-07-04T12:22:56.679Z,35.60
2018-07-04T12:25:25.139Z,35.00
2018-07-04T12:27:53.532Z,34.60
2018-07-04T12:30:21.946Z,34.10
2018-07-04T12:32:50.339Z,33.80
2018-07-04T12:35:18.988Z,33.60
2018-07-04T12:37:47.428Z,33.50
2018-07-04T12:40:15.868Z,33.60
2018-07-04T12:42:44.400Z,33.50
2018-07-04T12:45:12.828Z,33.50
2018-07-04T12:47:41.228Z,33.00
2018-07-04T12:50:22.413Z,32.50
2018-07-04T12:52:51.769Z,32.10
2018-07-04T12:55:38.065Z,31.60
2018-07-04T12:58:25.090Z,31.40
2018-07-04T13:01:12.707Z,31.20
2018-07-04T13:03:59.797Z,31.10
2018-07-04T13:06:47.198Z,30.90
2018-07-04T13:09:34.438Z,30.70
2018-07-04T13:12:22.261Z,30.70
2018-07-04T13:15:09.172Z,30.70
2018-07-04T13:17:56.852Z,30.70
2018-07-04T13:20:43.899Z,30.70
2018-07-04T13:23:32.190Z,30.60
2018-07-04T13:26:19.140Z,30.40
2018-07-04T13:29:06.346Z,30.70
2018-07-04T13:31:53.447Z,30.80
2018-07-04T13:34:40.438Z,30.80
2018-07-04T13:37:27.452Z,30.90
2018-07-04T13:40:14.549Z,30.80
2018-07-04T13:43:01.750Z,30.90
2018-07-04T13:45:48.909Z,31.00
2018-07-04T13:48:36.055Z,30.90
2018-07-04T13:51:23.174Z,30.70
2018-07-04T13:54:10.211Z,30.70
2018-07-04T13:56:57.281Z,30.50
2018-07-04T13:59:44.724Z,30.50
2018-07-04T14:02:31.990Z,30.50
2018-07-04T14:05:18.757Z,30.40
2018-07-04T14:08:08.056Z,30.10
2018-07-04T14:10:55.926Z,30.20
2018-07-04T14:13:43.753Z,30.20
2018-07-04T14:16:31.533Z,30.20
2018-07-04T14:19:18.684Z,30.20
2018-07-04T14:22:06.026Z,30.20
2018-07-04T14:24:52.938Z,30.20
2018-07-04T14:27:39.916Z,30.20
2018-07-04T14:33:07.907Z,30.20
2018-07-04T14:35:54.750Z,30.40
2018-07-04T14:38:41.837Z,30.70
2018-07-04T14:41:29.325Z,30.90
2018-07-04T14:46:56.848Z,31.10
2018-07-04T14:49:43.901Z,31.20
2018-07-04T14:55:11.492Z,31.20
2018-07-04T14:57:58.671Z,31.10
2018-07-04T15:00:45.673Z,31.20
2018-07-04T15:03:32.729Z,31.40
2018-07-04T15:06:20.064Z,31.50
2018-07-04T15:09:07.089Z,31.60
2018-07-04T15:11:54.863Z,31.80
2018-07-04T15:14:41.884Z,32.00
2018-07-04T15:20:11.145Z,31.50
2018-07-04T15:22:58.014Z,31.30
2018-07-04T15:25:45.200Z,31.20
2018-07-04T15:45:50.789Z,31.10
2018-07-04T15:51:18.667Z,30.90
2018-07-04T15:54:06.510Z,30.70
2018-07-04T15:56:53.411Z,30.70
2018-07-04T15:59:40.539Z,30.60
2018-07-04T16:02:27.841Z,30.40
2018-07-04T16:05:14.979Z,30.30
2018-07-04T16:08:02.097Z,30.30
2018-07-04T16:13:30.053Z,30.20
2018-07-04T16:16:17.881Z,30.20
2018-07-04T16:19:05.065Z,30.10
2018-07-04T16:21:52.123Z,29.90
2018-07-04T16:24:39.281Z,29.90
2018-07-04T16:27:26.365Z,29.90
2018-07-04T16:30:13.793Z,29.80
2018-07-04T16:33:01.040Z,29.70
2018-07-04T16:35:48.441Z,29.70
2018-07-04T16:38:35.381Z,29.70
2018-07-04T16:41:22.318Z,29.80
2018-07-04T16:44:09.205Z,29.80
2018-07-04T16:46:56.241Z,29.70
2018-07-04T16:52:24.175Z,29.90
2018-07-04T16:57:52.863Z,30.10
2018-07-04T17:00:39.724Z,30.10
2018-07-04T17:03:26.770Z,30.20
2018-07-04T17:06:13.833Z,30.00
2018-07-04T17:09:00.792Z,29.90
2018-07-04T17:11:47.873Z,29.80
2018-07-04T17:14:35.571Z,29.80
2018-07-04T17:17:22.478Z,29.60
2018-07-04T17:20:09.481Z,29.60
2018-07-04T17:22:56.486Z,29.50
2018-07-04T17:28:24.574Z,29.20
2018-07-04T17:31:11.622Z,29.00
2018-07-04T17:33:58.565Z,28.90
2018-07-04T17:36:45.571Z,28.80
2018-07-04T17:39:32.605Z,28.90
2018-07-04T17:42:19.690Z,29.00
2018-07-04T17:45:06.766Z,29.00
2018-07-04T17:47:53.807Z,29.00
2018-07-04T17:50:40.844Z,29.10
2018-07-04T17:53:27.951Z,29.20
2018-07-04T17:56:14.961Z,29.30
2018-07-04T17:59:02.165Z,29.20
2018-07-04T18:01:49.324Z,29.10
2018-07-04T18:04:36.368Z,29.10
2018-07-04T18:07:23.443Z,29.10
2018-07-04T18:10:10.622Z,28.90
2018-07-04T18:12:57.546Z,28.90
2018-07-04T18:15:44.721Z,28.90
2018-07-04T18:18:31.759Z,29.00
2018-07-04T18:21:25.208Z,28.90
2018-07-04T18:24:12.257Z,28.90
2018-07-04T18:26:59.132Z,28.90
2018-07-04T18:29:46.131Z,28.90
2018-07-04T18:32:33.335Z,29.00
2018-07-04T18:35:20.441Z,29.00
2018-07-04T18:38:07.361Z,29.00
2018-07-04T18:40:54.408Z,29.00
2018-07-04T18:46:22.462Z,29.00
2018-07-04T18:51:57.948Z,29.00
2018-07-04T18:57:26.517Z,28.90
2018-07-04T19:00:13.649Z,28.90
2018-07-04T19:03:00.694Z,28.90
2018-07-04T19:05:48.478Z,28.90
2018-07-04T19:08:35.540Z,28.90
2018-07-04T19:11:22.608Z,28.80
2018-07-04T19:14:09.681Z,28.80
2018-07-04T19:16:57.781Z,28.70
2018-07-04T19:19:44.883Z,28.70
2018-07-04T19:22:32.037Z,28.60
2018-07-04T19:25:19.180Z,28.50
2018-07-04T19:28:06.479Z,28.40
2018-07-04T19:30:53.557Z,28.40
2018-07-04T19:33:40.699Z,28.40
2018-07-04T19:36:27.834Z,28.30
2018-07-04T19:39:14.847Z,28.20
2018-07-04T19:42:02.071Z,28.20
2018-07-04T19:44:49.023Z,28.20
2018-07-04T19:47:36.269Z,28.30
2018-07-04T19:50:23.276Z,28.10
2018-07-04T19:53:10.366Z,28.20
2018-07-04T19:55:57.401Z,28.20
2018-07-04T19:58:44.394Z,28.10
2018-07-04T20:01:31.350Z,28.00
2018-07-04T20:04:18.506Z,27.90
2018-07-04T20:07:05.501Z,27.80
2018-07-04T20:09:52.541Z,27.70
2018-07-04T20:12:39.645Z,27.60
2018-07-04T20:15:26.775Z,27.60
2018-07-04T20:18:13.645Z,27.70
2018-07-04T20:21:00.803Z,27.70
2018-07-04T20:23:47.938Z,27.60
2018-07-04T20:26:35.002Z,27.60
2018-07-04T20:29:22.077Z,27.50
2018-07-04T20:32:09.171Z,27.50
2018-07-04T20:37:36.923Z,27.50
2018-07-04T20:40:23.772Z,27.50
2018-07-04T20:43:10.902Z,27.50
2018-07-04T20:45:57.994Z,27.50
2018-07-04T20:48:45.044Z,27.50
2018-07-04T20:51:32.074Z,27.50
2018-07-04T20:54:19.504Z,27.50
2018-07-04T20:57:06.747Z,27.50
2018-07-04T20:59:53.810Z,27.40
2018-07-04T21:02:40.916Z,27.40
2018-07-04T21:05:28.597Z,27.40
2018-07-04T21:08:15.688Z,27.50
2018-07-04T21:11:02.676Z,27.40
2018-07-04T21:13:49.565Z,27.40
2018-07-04T21:16:36.772Z,27.40
2018-07-04T21:19:23.568Z,27.40
2018-07-04T21:22:10.833Z,27.30
2018-07-04T21:24:57.961Z,27.20
2018-07-04T21:30:26.140Z,27.10
2018-07-04T21:33:13.200Z,27.10
2018-07-04T21:36:00.349Z,27.10
2018-07-04T21:38:47.322Z,27.10
2018-07-04T21:41:34.445Z,27.10
2018-07-04T21:44:21.900Z,27.10
2018-07-04T21:47:09.157Z,27.10
2018-07-04T21:49:56.236Z,27.00
2018-07-04T21:52:43.561Z,26.90
2018-07-04T21:55:30.667Z,26.90
2018-07-04T21:58:17.880Z,26.90
2018-07-04T22:01:05.488Z,26.90
2018-07-04T22:03:52.652Z,26.80
2018-07-04T22:06:39.869Z,26.60
2018-07-04T22:09:26.904Z,26.50
2018-07-04T22:12:13.889Z,26.50
2018-07-04T22:15:01.276Z,26.50
2018-07-04T22:17:48.336Z,26.50
2018-07-04T22:20:35.341Z,26.40
2018-07-04T22:23:22.382Z,26.50
2018-07-04T22:26:09.403Z,26.50
2018-07-04T22:28:56.361Z,26.40
2018-07-04T22:31:43.455Z,26.40
2018-07-04T22:34:30.517Z,26.40
2018-07-04T22:37:17.662Z,26.30
2018-07-04T22:40:05.164Z,26.30
2018-07-04T22:45:33.170Z,26.30
2018-07-04T22:48:20.229Z,26.30
2018-07-04T22:51:07.333Z,26.20
2018-07-04T22:53:54.641Z,26.10
2018-07-04T22:56:41.879Z,26.10
2018-07-04T22:59:28.900Z,26.00
2018-07-04T23:02:15.822Z,26.10
2018-07-04T23:05:02.788Z,26.10
2018-07-04T23:07:51.050Z,26.10
2018-07-04T23:10:37.950Z,26.00
2018-07-04T23:13:25.029Z,26.00
2018-07-04T23:16:12.019Z,25.90
2018-07-04T23:18:59.130Z,25.80
2018-07-04T23:21:46.057Z,25.70
2018-07-04T23:24:33.337Z,25.70
2018-07-04T23:27:20.264Z,25.50
2018-07-04T23:30:07.197Z,25.50
2018-07-04T23:32:54.184Z,25.40
2018-07-04T23:35:41.937Z,25.40
2018-07-04T23:38:29.129Z,25.50
2018-07-04T23:41:16.180Z,25.40
2018-07-04T23:44:03.436Z,25.30
2018-07-04T23:46:50.460Z,25.30
2018-07-04T23:49:44.547Z,25.30
2018-07-04T23:52:31.646Z,25.40
2018-07-04T23:55:18.891Z,25.40
